createdAt,value
2022-10-04T00:01:00.750Z,14.3
2022-10-04T00:16:00.786Z,14
2022-10-04T00:31:00.795Z,14.2
2022-10-04T00:46:00.732Z,14.3
2022-10-04T01:01:00.701Z,14.5
2022-10-04T01:16:00.686Z,14.6
2022-10-04T01:31:00.680Z,14.7
2022-10-04T01:46:00.587Z,14.3
2022-10-04T02:01:00.616Z,14.1
2022-10-04T02:16:00.609Z,13.9
2022-10-04T02:31:00.591Z,13.7
2022-10-04T02:46:00.606Z,13.9
2022-10-04T03:01:00.575Z,13.8
2022-10-04T03:16:00.548Z,14
2022-10-04T03:31:00.509Z,13.9
2022-10-04T03:46:00.441Z,13.7
2022-10-04T04:01:00.543Z,13.1
2022-10-04T04:16:00.408Z,12.9
2022-10-04T04:31:00.378Z,12.9
2022-10-04T04:46:25.435Z,12.6
2022-10-04T05:01:00.405Z,12.3
2022-10-04T05:16:00.352Z,12.2
2022-10-04T05:31:00.318Z,12.1
2022-10-04T05:46:00.360Z,12
2022-10-04T06:01:00.324Z,12
2022-10-04T06:16:00.237Z,11.9
2022-10-04T06:31:00.358Z,12.4
2022-10-04T06:46:00.252Z,15.2
2022-10-04T07:01:00.274Z,16.7
2022-10-04T07:16:00.247Z,19.7
2022-10-04T07:31:00.272Z,23.1
2022-10-04T07:46:00.175Z,23.6
2022-10-04T08:01:00.074Z,23.1
2022-10-04T08:16:00.049Z,22.4
2022-10-04T08:31:00.071Z,21.8
2022-10-04T08:46:00.036Z,22.3
2022-10-04T09:00:59.964Z,22.5
2022-10-04T09:15:59.959Z,19.9
2022-10-04T09:31:00.012Z,18
2022-10-04T09:45:59.902Z,17.7
2022-10-04T10:15:59.934Z,18.4
2022-10-04T10:30:59.847Z,21.3
2022-10-04T10:45:59.767Z,24
2022-10-04T11:00:59.736Z,24.7
2022-10-04T11:15:59.744Z,24.5
2022-10-04T11:30:59.755Z,22.3
2022-10-04T11:45:59.653Z,21.6
2022-10-04T12:00:59.691Z,21.4
2022-10-04T12:15:59.699Z,21.2
2022-10-04T12:30:59.623Z,21.7
2022-10-04T12:45:59.649Z,21.7
2022-10-04T13:01:02.195Z,22.5
2022-10-04T13:30:59.511Z,22.9
2022-10-04T13:45:59.497Z,23
2022-10-04T14:00:59.491Z,23.2
2022-10-04T14:15:59.400Z,23.4
2022-10-04T14:30:59.409Z,23.6
2022-10-04T14:45:59.376Z,23.8
2022-10-04T15:00:59.409Z,23.8
2022-10-04T15:15:59.341Z,23.4
2022-10-04T15:30:59.349Z,23.1
2022-10-04T15:46:03.036Z,22.8
2022-10-04T16:00:59.302Z,22.6
2022-10-04T16:15:59.239Z,22.3
2022-10-04T16:30:59.277Z,22.2
2022-10-04T16:45:59.196Z,21.8
2022-10-04T17:00:59.180Z,21.4
2022-10-04T17:15:59.105Z,20.7
2022-10-04T17:30:59.180Z,20.2
2022-10-04T17:45:59.079Z,19.7
2022-10-04T18:00:59.035Z,19.2
2022-10-04T18:15:59.041Z,18.6
2022-10-04T18:30:59.212Z,18.2
2022-10-04T18:45:58.965Z,17.8
2022-10-04T19:00:59.017Z,17.5
2022-10-04T19:15:58.974Z,17.2
2022-10-04T19:30:58.887Z,16.9
2022-10-04T19:45:59.025Z,16.7
2022-10-04T20:00:58.929Z,16.4
2022-10-04T20:15:58.873Z,16.4
2022-10-04T20:30:58.792Z,16.2
2022-10-04T20:45:58.811Z,16
2022-10-04T21:00:58.776Z,16
2022-10-04T21:30:58.694Z,15.4
2022-10-04T21:45:58.700Z,15.2
2022-10-04T22:00:58.707Z,14.8
2022-10-04T22:15:58.600Z,14.6
2022-10-04T22:30:58.605Z,14.8
2022-10-04T22:45:58.637Z,14.9
2022-10-04T23:00:58.533Z,14.6
2022-10-04T23:15:58.604Z,14.5
2022-10-04T23:30:58.501Z,14.5
2022-10-04T23:45:58.560Z,14.4
